Terminal Aerodrome Forecast
Issued by NWS

Home | Current Version | Previous Version | Text Only | Print | Product List | Glossary On
Versions: 1 2 3 4 5 6 7 8 9 10 11 12 13 14 15 16 17
968
FTUS45 KPIH 062325
TAFSUN
TAF
KSUN 062325Z 0700/0724 16007KT P6SM BKN060
     FM070200 31009KT P6SM SCT100
     FM072000 12007KT P6SM FEW100
      AMD LTD TO CLD VIS AND WIND 0706/0714=

USA.gov is the U.S. government's official web portal to all federal, state and local government web resources and services.